createdAt,value
2018-05-08T00:01:49.005Z,1.93
2018-05-08T00:04:16.586Z,1.77
2018-05-08T00:06:44.179Z,2.00
2018-05-08T00:09:11.767Z,1.90
2018-05-08T00:11:39.280Z,1.60
2018-05-08T00:14:06.858Z,2.13
2018-05-08T00:16:34.392Z,2.10
2018-05-08T00:19:02.009Z,1.93
2018-05-08T00:21:29.590Z,1.80
2018-05-08T00:23:57.161Z,1.83
2018-05-08T00:26:24.729Z,1.60
2018-05-08T00:28:52.279Z,1.83
2018-05-08T00:31:19.840Z,1.70
2018-05-08T00:33:47.414Z,2.07
2018-05-08T00:36:15.016Z,2.00
2018-05-08T00:38:42.604Z,1.73
2018-05-08T00:41:10.246Z,2.00
2018-05-08T00:43:37.793Z,1.83
2018-05-08T00:46:05.394Z,1.83
2018-05-08T00:48:33.088Z,1.80
2018-05-08T00:51:00.705Z,2.60
2018-05-08T00:53:28.271Z,1.93
2018-05-08T00:55:55.829Z,2.30
2018-05-08T00:58:23.399Z,1.87
2018-05-08T01:00:50.952Z,1.63
2018-05-08T01:03:18.501Z,2.00
2018-05-08T01:05:46.080Z,2.00
2018-05-08T01:08:13.642Z,2.10
2018-05-08T01:10:41.216Z,1.87
2018-05-08T01:13:08.766Z,2.00
2018-05-08T01:15:36.712Z,2.00
2018-05-08T01:18:04.490Z,1.80
2018-05-08T01:20:32.039Z,2.00
2018-05-08T01:22:59.636Z,1.90
2018-05-08T01:25:28.215Z,2.47
2018-05-08T01:27:55.763Z,1.90
2018-05-08T01:30:23.358Z,2.27
2018-05-08T01:32:50.939Z,1.83
2018-05-08T01:35:18.545Z,2.13
2018-05-08T01:37:46.688Z,2.07
2018-05-08T01:40:14.276Z,2.20
2018-05-08T01:42:41.859Z,2.13
2018-05-08T01:45:09.482Z,2.20
2018-05-08T01:47:37.036Z,2.13
2018-05-08T01:50:04.603Z,2.20
2018-05-08T01:52:32.153Z,1.57
2018-05-08T01:54:59.708Z,1.60
2018-05-08T01:57:27.272Z,2.40
2018-05-08T01:59:54.865Z,1.93
2018-05-08T02:02:22.519Z,2.30
2018-05-08T02:04:50.044Z,2.23
2018-05-08T02:07:17.620Z,1.87
2018-05-08T02:09:45.195Z,2.03
2018-05-08T02:12:12.865Z,2.33
2018-05-08T02:14:40.393Z,2.13
2018-05-08T02:17:07.962Z,2.10
2018-05-08T02:19:35.535Z,2.00
2018-05-08T02:22:03.126Z,1.87
2018-05-08T02:24:30.678Z,1.87
2018-05-08T02:26:58.252Z,1.90
2018-05-08T02:29:25.813Z,2.20
2018-05-08T02:31:53.369Z,2.30
2018-05-08T02:34:20.933Z,2.00
2018-05-08T02:36:48.602Z,2.57
2018-05-08T02:39:16.153Z,2.03
2018-05-08T02:41:43.767Z,2.30
2018-05-08T02:44:11.328Z,2.20
2018-05-08T02:46:38.883Z,1.83
2018-05-08T02:49:06.417Z,1.70
2018-05-08T02:51:34.075Z,2.00
2018-05-08T02:54:01.675Z,1.97
2018-05-08T02:56:29.235Z,2.17
2018-05-08T02:58:56.817Z,1.87
2018-05-08T03:01:24.387Z,2.30
2018-05-08T03:03:51.934Z,2.40
2018-05-08T03:06:19.504Z,1.90
2018-05-08T03:08:47.078Z,1.80
2018-05-08T03:11:14.638Z,2.30
2018-05-08T03:13:42.199Z,2.33
2018-05-08T03:16:09.812Z,2.47
2018-05-08T03:18:37.384Z,2.97
2018-05-08T03:21:04.947Z,2.73
2018-05-08T03:23:32.492Z,2.20
2018-05-08T03:26:00.089Z,2.17
2018-05-08T03:28:27.652Z,2.47
2018-05-08T03:30:55.208Z,2.37
2018-05-08T03:33:22.767Z,2.17
2018-05-08T03:35:50.321Z,2.43
2018-05-08T03:38:17.891Z,2.63
2018-05-08T03:40:45.435Z,2.47
2018-05-08T03:43:12.969Z,2.03
2018-05-08T03:45:41.057Z,2.90
2018-05-08T03:48:08.641Z,2.87
2018-05-08T03:50:36.207Z,2.60
2018-05-08T03:53:03.803Z,2.33
2018-05-08T03:55:31.360Z,2.53
2018-05-08T03:57:59.013Z,2.80
2018-05-08T04:00:38.328Z,4.07
2018-05-08T04:09:35.102Z,2.50
2018-05-08T04:12:02.697Z,2.77
2018-05-08T04:14:30.414Z,2.60
2018-05-08T04:16:57.996Z,2.60
2018-05-08T04:19:25.658Z,2.77
2018-05-08T04:21:53.270Z,2.20
2018-05-08T04:24:20.853Z,2.80
2018-05-08T04:26:48.442Z,2.40
2018-05-08T04:29:16.064Z,2.73
2018-05-08T04:31:43.623Z,2.50
2018-05-08T04:34:11.197Z,2.17
2018-05-08T04:36:38.867Z,2.77
2018-05-08T04:39:07.188Z,2.70
2018-05-08T04:41:34.751Z,2.47
2018-05-08T04:44:02.327Z,2.50
2018-05-08T04:46:29.933Z,2.30
2018-05-08T04:48:57.535Z,2.70
2018-05-08T04:51:25.121Z,2.60
2018-05-08T04:53:52.731Z,2.77
2018-05-08T04:56:20.266Z,2.33
2018-05-08T04:58:48.170Z,2.17
2018-05-08T05:01:16.145Z,2.57
2018-05-08T05:03:44.209Z,2.37
2018-05-08T05:06:12.655Z,2.60
2018-05-08T05:08:40.227Z,2.13
2018-05-08T05:11:07.846Z,2.30
2018-05-08T05:13:35.341Z,2.13
2018-05-08T05:16:02.872Z,2.00
2018-05-08T05:18:30.568Z,1.90
2018-05-08T05:20:58.133Z,2.80
2018-05-08T05:23:25.706Z,4.07
2018-05-08T05:25:53.245Z,2.77
2018-05-08T05:28:20.802Z,2.60
2018-05-08T05:30:48.353Z,2.90
2018-05-08T05:33:15.957Z,2.73
2018-05-08T05:35:43.577Z,1.97
2018-05-08T05:38:11.217Z,6.10
2018-05-08T05:40:38.776Z,2.53
2018-05-08T05:43:06.352Z,2.80
2018-05-08T05:45:33.896Z,2.63
2018-05-08T05:48:01.660Z,3.60
2018-05-08T05:50:29.274Z,3.63
2018-05-08T05:52:56.940Z,2.67
2018-05-08T05:55:24.530Z,3.50
2018-05-08T05:57:52.092Z,2.20
2018-05-08T06:00:19.647Z,3.20
2018-05-08T06:02:47.202Z,3.30
2018-05-08T06:07:46.981Z,5.27
2018-05-08T06:10:14.851Z,4.57
2018-05-08T06:12:42.398Z,2.83
2018-05-08T06:15:10.289Z,2.50
2018-05-08T06:17:38.210Z,2.00
2018-05-08T06:20:05.923Z,2.67
2018-05-08T06:22:33.456Z,2.50
2018-05-08T06:25:01.020Z,2.47
2018-05-08T06:27:28.631Z,2.60
2018-05-08T06:29:56.324Z,3.20
2018-05-08T06:32:23.980Z,2.53
2018-05-08T06:34:51.598Z,2.70
2018-05-08T06:37:19.209Z,2.67
2018-05-08T06:39:47.548Z,2.70
2018-05-08T06:42:15.103Z,3.20
2018-05-08T06:44:42.657Z,2.90
2018-05-08T06:47:10.237Z,3.00
2018-05-08T06:49:38.220Z,2.53
2018-05-08T06:52:05.798Z,2.60
2018-05-08T06:54:33.428Z,2.67
2018-05-08T06:57:01.054Z,3.03
2018-05-08T06:59:28.756Z,2.83
2018-05-08T07:01:56.490Z,2.70
2018-05-08T07:04:24.118Z,2.63
2018-05-08T07:06:51.791Z,2.60
2018-05-08T07:09:19.532Z,2.87
2018-05-08T07:11:47.173Z,2.50
2018-05-08T07:14:14.789Z,2.60
2018-05-08T07:16:43.025Z,2.93
2018-05-08T07:19:10.581Z,2.60
2018-05-08T07:21:38.287Z,2.80
2018-05-08T07:24:05.920Z,2.67
2018-05-08T07:26:33.589Z,3.00
2018-05-08T07:29:01.427Z,2.80
2018-05-08T07:31:29.049Z,2.73
2018-05-08T07:33:56.680Z,2.57
2018-05-08T07:36:24.322Z,3.10
2018-05-08T07:38:52.017Z,3.43
2018-05-08T07:41:19.680Z,2.93
2018-05-08T07:43:47.353Z,2.90
2018-05-08T07:46:15.169Z,2.70
2018-05-08T07:48:42.835Z,2.83
2018-05-08T07:51:10.610Z,2.83
2018-05-08T07:53:38.255Z,2.87
2018-05-08T07:56:05.818Z,2.97
2018-05-08T07:58:33.346Z,2.53
2018-05-08T08:01:00.933Z,2.80
2018-05-08T08:03:28.482Z,2.37
2018-05-08T08:05:56.072Z,3.20
2018-05-08T08:08:23.671Z,2.78
2018-05-08T08:10:51.225Z,2.67
2018-05-08T08:13:18.831Z,2.60
2018-05-08T08:15:46.425Z,2.80
2018-05-08T08:18:13.958Z,3.25
2018-05-08T08:20:41.584Z,2.35
2018-05-08T08:23:09.201Z,2.62
2018-05-08T08:25:36.802Z,2.50
2018-05-08T08:28:04.359Z,2.55
2018-05-08T08:30:32.105Z,2.85
2018-05-08T08:32:59.792Z,2.60
2018-05-08T08:35:27.372Z,2.70
2018-05-08T08:37:54.948Z,2.40
2018-05-08T08:40:22.638Z,2.62
2018-05-08T08:42:50.259Z,2.62
2018-05-08T08:45:17.817Z,2.80
2018-05-08T08:47:46.510Z,2.70
2018-05-08T08:50:13.996Z,2.90
2018-05-08T08:52:41.613Z,2.50
2018-05-08T08:55:09.136Z,2.50
2018-05-08T08:57:36.781Z,2.50
2018-05-08T09:00:04.557Z,2.50
2018-05-08T09:02:32.168Z,2.45
2018-05-08T09:04:59.701Z,2.60
2018-05-08T09:07:27.278Z,2.62
2018-05-08T09:09:54.824Z,2.70
2018-05-08T09:12:22.382Z,2.40
2018-05-08T09:14:49.932Z,2.53
2018-05-08T09:17:17.491Z,2.60
2018-05-08T09:19:45.133Z,2.65
2018-05-08T09:22:12.713Z,2.22
2018-05-08T09:24:40.245Z,2.58
2018-05-08T09:27:07.791Z,2.33
2018-05-08T09:29:35.376Z,2.70
2018-05-08T09:32:02.938Z,2.35
2018-05-08T09:34:30.465Z,2.50
2018-05-08T09:36:58.060Z,2.25
2018-05-08T09:39:26.334Z,2.50
2018-05-08T09:41:53.890Z,2.37
2018-05-08T09:44:21.443Z,2.03
2018-05-08T09:46:48.980Z,2.65
2018-05-08T09:49:16.499Z,2.72
2018-05-08T09:51:44.050Z,2.35
2018-05-08T09:54:11.682Z,2.25
2018-05-08T09:56:39.241Z,2.30
2018-05-08T09:59:06.786Z,2.37
2018-05-08T10:01:34.424Z,2.45
2018-05-08T10:04:01.975Z,2.10
2018-05-08T10:06:29.572Z,2.03
2018-05-08T10:08:57.159Z,2.22
2018-05-08T10:11:24.795Z,2.50
2018-05-08T10:13:52.410Z,2.30
2018-05-08T10:16:20.002Z,2.50
2018-05-08T10:18:47.573Z,2.50
2018-05-08T10:21:15.094Z,2.12
2018-05-08T10:23:42.670Z,2.10
2018-05-08T10:26:10.234Z,2.47
2018-05-08T10:28:37.778Z,2.20
2018-05-08T10:31:05.327Z,2.28
2018-05-08T10:33:32.903Z,2.60
2018-05-08T10:36:00.542Z,2.15
2018-05-08T10:38:28.241Z,2.67
2018-05-08T10:40:55.814Z,2.50
2018-05-08T10:43:24.340Z,2.70
2018-05-08T10:45:51.898Z,2.45
2018-05-08T10:48:20.259Z,2.33
2018-05-08T10:50:47.858Z,2.30
2018-05-08T10:53:15.409Z,1.90
2018-05-08T10:55:43.025Z,2.58
2018-05-08T10:58:10.667Z,2.42
2018-05-08T11:00:38.212Z,2.50
2018-05-08T11:03:05.782Z,2.20
2018-05-08T11:05:33.334Z,2.20
2018-05-08T11:08:00.921Z,2.30
2018-05-08T11:10:28.551Z,2.33
2018-05-08T11:12:56.111Z,2.17
2018-05-08T11:15:23.613Z,2.15
2018-05-08T11:17:51.135Z,2.20
2018-05-08T11:20:18.701Z,2.10
2018-05-08T11:22:46.256Z,2.25
2018-05-08T11:25:13.796Z,2.05
2018-05-08T11:27:41.378Z,2.22
2018-05-08T11:30:08.955Z,2.05
2018-05-08T11:32:36.741Z,1.80
2018-05-08T11:35:05.157Z,2.25
2018-05-08T11:37:33.028Z,2.28
2018-05-08T11:40:00.629Z,2.08
2018-05-08T11:42:28.164Z,2.08
2018-05-08T11:44:55.724Z,2.00
2018-05-08T11:47:23.283Z,2.20
2018-05-08T11:49:50.908Z,2.30
2018-05-08T11:52:18.480Z,1.90
2018-05-08T11:54:46.069Z,2.10
2018-05-08T11:57:13.603Z,1.90
2018-05-08T11:59:41.192Z,2.10
2018-05-08T12:02:08.853Z,2.00
2018-05-08T12:04:36.419Z,2.40
2018-05-08T12:07:04.045Z,2.13
2018-05-08T12:09:31.647Z,2.67
2018-05-08T12:11:59.192Z,2.33
2018-05-08T12:14:26.951Z,2.70
2018-05-08T12:16:54.548Z,1.70
2018-05-08T12:19:22.107Z,2.23
2018-05-08T12:21:49.722Z,1.90
2018-05-08T12:24:18.133Z,1.90
2018-05-08T12:26:45.725Z,1.83
2018-05-08T12:29:13.282Z,2.10
2018-05-08T12:31:40.913Z,1.90
2018-05-08T12:34:08.528Z,1.87
2018-05-08T12:36:36.080Z,1.90
2018-05-08T12:39:03.680Z,2.00
2018-05-08T12:41:31.257Z,1.73
2018-05-08T12:43:58.844Z,1.50
2018-05-08T12:46:26.395Z,1.90
2018-05-08T12:48:53.981Z,1.87
2018-05-08T12:51:21.507Z,1.80
2018-05-08T12:53:49.785Z,1.70
2018-05-08T12:56:17.413Z,1.60
2018-05-08T12:58:44.951Z,1.40
2018-05-08T13:01:12.506Z,1.80
2018-05-08T13:03:40.039Z,1.70
2018-05-08T13:06:07.591Z,1.90
2018-05-08T13:08:35.116Z,1.50
2018-05-08T13:11:02.808Z,1.60
2018-05-08T13:13:30.278Z,1.50
2018-05-08T13:15:57.845Z,1.47
2018-05-08T13:18:25.549Z,1.60
2018-05-08T13:20:56.585Z,1.70
2018-05-08T13:23:24.147Z,1.70
2018-05-08T13:25:51.747Z,1.43
2018-05-08T13:28:19.380Z,1.57
2018-05-08T13:30:46.937Z,1.73
2018-05-08T13:33:14.468Z,1.50
2018-05-08T13:35:42.038Z,1.40
2018-05-08T13:38:09.657Z,1.60
2018-05-08T13:40:37.319Z,1.57
2018-05-08T13:43:04.796Z,1.53
2018-05-08T13:45:32.369Z,1.63
2018-05-08T13:47:59.984Z,1.50
2018-05-08T13:50:27.511Z,1.80
2018-05-08T13:52:55.065Z,1.63
2018-05-08T13:55:22.663Z,1.87
2018-05-08T13:57:50.230Z,1.70
2018-05-08T14:00:17.763Z,1.60
2018-05-08T14:02:45.386Z,1.40
2018-05-08T14:05:12.920Z,1.40
2018-05-08T14:07:40.454Z,1.40
2018-05-08T14:10:08.046Z,1.33
2018-05-08T14:12:35.663Z,1.20
2018-05-08T14:15:03.251Z,1.40
2018-05-08T14:17:30.800Z,1.30
2018-05-08T14:19:58.352Z,1.60
2018-05-08T14:22:25.956Z,1.60
2018-05-08T14:24:53.603Z,1.37
2018-05-08T14:27:21.238Z,1.30
2018-05-08T14:29:48.855Z,1.40
2018-05-08T14:32:16.446Z,1.50
2018-05-08T14:34:44.015Z,1.50
2018-05-08T14:37:11.652Z,1.67
2018-05-08T14:39:39.217Z,1.33
2018-05-08T14:42:06.790Z,1.30
2018-05-08T14:44:34.386Z,1.80
2018-05-08T14:47:01.950Z,1.80
2018-05-08T14:49:29.517Z,1.83
2018-05-08T14:51:57.085Z,1.87
2018-05-08T14:54:24.618Z,2.13
2018-05-08T14:56:52.175Z,1.73
2018-05-08T14:59:19.762Z,1.33
2018-05-08T15:01:47.381Z,1.37
2018-05-08T15:04:14.986Z,1.50
2018-05-08T15:06:42.575Z,1.37
2018-05-08T15:09:10.129Z,1.67
2018-05-08T15:11:37.692Z,1.53
2018-05-08T15:14:05.510Z,1.53
2018-05-08T15:16:33.147Z,1.50
2018-05-08T15:19:00.682Z,1.40
2018-05-08T15:21:28.357Z,1.67
2018-05-08T15:23:55.997Z,1.43
2018-05-08T15:26:23.600Z,1.40
2018-05-08T15:28:51.196Z,1.87
2018-05-08T15:31:18.806Z,1.33
2018-05-08T15:33:46.378Z,1.30
2018-05-08T15:36:13.941Z,1.50
2018-05-08T15:38:41.542Z,1.23
2018-05-08T15:41:09.213Z,1.30
2018-05-08T15:43:36.698Z,1.50
2018-05-08T15:46:04.260Z,1.43
2018-05-08T15:48:31.825Z,1.40
2018-05-08T15:50:59.588Z,1.30
2018-05-08T15:53:27.266Z,1.80
2018-05-08T15:55:54.839Z,1.60
2018-05-08T15:58:22.526Z,1.70
2018-05-08T16:00:50.063Z,1.40
2018-05-08T16:03:17.621Z,1.67
2018-05-08T16:05:45.195Z,1.40
2018-05-08T16:08:12.735Z,1.90
2018-05-08T16:10:40.300Z,1.50
2018-05-08T16:13:07.884Z,1.60
2018-05-08T16:15:35.476Z,1.73
2018-05-08T16:18:04.196Z,1.60
2018-05-08T16:20:31.764Z,1.60
2018-05-08T16:22:59.347Z,1.67
2018-05-08T16:25:26.936Z,1.70
2018-05-08T16:27:54.589Z,1.60
2018-05-08T16:30:22.220Z,1.57
2018-05-08T16:32:49.775Z,1.63
2018-05-08T16:35:17.345Z,2.47
2018-05-08T16:37:44.967Z,1.90
2018-05-08T16:40:12.551Z,2.07
2018-05-08T16:42:40.363Z,1.57
2018-05-08T16:45:07.984Z,1.43
2018-05-08T16:47:35.569Z,1.73
2018-05-08T16:50:03.309Z,1.43
2018-05-08T16:52:30.879Z,1.90
2018-05-08T16:54:58.458Z,1.70
2018-05-08T16:57:26.023Z,2.50
2018-05-08T16:59:54.072Z,1.43
2018-05-08T17:02:21.637Z,2.00
2018-05-08T17:04:49.234Z,2.00
2018-05-08T17:07:16.799Z,2.37
2018-05-08T17:09:44.381Z,3.90
2018-05-08T17:12:12.004Z,2.10
2018-05-08T17:14:39.571Z,1.70
2018-05-08T17:17:07.129Z,2.00
2018-05-08T17:19:34.778Z,1.97
2018-05-08T17:22:02.311Z,2.00
2018-05-08T17:24:29.959Z,1.80
2018-05-08T17:26:57.493Z,1.63
2018-05-08T17:29:25.082Z,2.87
2018-05-08T17:31:52.644Z,2.17
2018-05-08T17:34:20.234Z,1.67
2018-05-08T17:36:47.777Z,1.87
2018-05-08T17:39:15.341Z,1.37
2018-05-08T17:41:42.889Z,1.80
2018-05-08T17:44:10.465Z,1.80
2018-05-08T17:46:38.129Z,1.70
2018-05-08T17:49:05.753Z,1.60
2018-05-08T17:51:33.329Z,1.70
2018-05-08T17:54:00.896Z,2.13
2018-05-08T17:56:28.557Z,1.83
2018-05-08T17:58:56.175Z,2.60
2018-05-08T18:01:23.712Z,2.20
2018-05-08T18:03:51.261Z,2.07
2018-05-08T18:06:18.833Z,2.30
2018-05-08T18:08:46.417Z,2.33
2018-05-08T18:11:13.957Z,1.63
2018-05-08T18:13:41.525Z,1.73
2018-05-08T18:16:09.120Z,1.80
2018-05-08T18:18:38.350Z,2.67
2018-05-08T18:21:05.940Z,1.80
2018-05-08T18:23:33.556Z,1.77
2018-05-08T18:26:01.941Z,2.10
2018-05-08T18:28:30.088Z,1.97
2018-05-08T18:30:58.295Z,2.07
2018-05-08T18:33:26.432Z,2.23
2018-05-08T18:35:54.058Z,2.30
2018-05-08T18:38:21.704Z,2.10
2018-05-08T18:40:49.361Z,1.50
2018-05-08T18:43:16.959Z,1.90
2018-05-08T18:45:44.498Z,1.60
2018-05-08T18:48:12.073Z,1.90
2018-05-08T18:50:39.697Z,2.03
2018-05-08T18:53:08.957Z,2.53
2018-05-08T18:55:36.584Z,1.90
2018-05-08T18:58:04.148Z,2.40
2018-05-08T19:00:37.429Z,1.90
2018-05-08T19:03:05.041Z,2.07
2018-05-08T19:05:32.716Z,1.93
2018-05-08T19:08:00.407Z,2.10
2018-05-08T19:10:28.092Z,1.93
2018-05-08T19:12:55.946Z,1.67
2018-05-08T19:15:29.162Z,2.10
2018-05-08T19:17:56.873Z,1.83
2018-05-08T19:20:24.599Z,2.20
2018-05-08T19:22:52.279Z,2.00
2018-05-08T19:25:19.943Z,2.00
2018-05-08T19:27:48.498Z,1.83
2018-05-08T19:30:21.466Z,1.63
2018-05-08T19:32:49.056Z,2.13
2018-05-08T19:35:22.108Z,1.97
2018-05-08T19:37:55.124Z,1.73
2018-05-08T19:40:22.844Z,1.70
2018-05-08T19:42:50.448Z,2.10
2018-05-08T19:45:18.078Z,1.90
2018-05-08T19:47:46.148Z,1.90
2018-05-08T19:50:13.712Z,2.20
2018-05-08T19:52:41.256Z,1.63
2018-05-08T19:55:08.835Z,2.03
2018-05-08T19:57:36.367Z,1.97
2018-05-08T20:00:03.989Z,2.07
2018-05-08T20:02:31.584Z,2.40
2018-05-08T20:04:59.176Z,2.10
2018-05-08T20:07:26.723Z,2.10
2018-05-08T20:09:54.311Z,2.10
2018-05-08T20:12:21.860Z,2.10
2018-05-08T20:14:49.428Z,2.17
2018-05-08T20:17:17.015Z,2.37
2018-05-08T20:19:44.591Z,2.03
2018-05-08T20:22:12.169Z,2.40
2018-05-08T20:24:39.789Z,2.00
2018-05-08T20:27:07.371Z,2.07
2018-05-08T20:29:34.949Z,2.53
2018-05-08T20:32:02.522Z,2.10
2018-05-08T20:34:30.166Z,2.03
2018-05-08T20:36:57.749Z,1.90
2018-05-08T20:39:25.393Z,2.27
2018-05-08T20:41:52.967Z,1.90
2018-05-08T20:44:20.553Z,1.83
2018-05-08T20:46:48.117Z,2.13
2018-05-08T20:49:15.737Z,1.97
2018-05-08T20:51:43.519Z,1.83
2018-05-08T20:54:11.036Z,2.20
2018-05-08T20:56:38.601Z,2.13
2018-05-08T20:59:06.229Z,2.73
2018-05-08T21:01:33.816Z,2.50
2018-05-08T21:04:02.581Z,2.53
2018-05-08T21:06:30.143Z,2.30
2018-05-08T21:08:57.703Z,2.63
2018-05-08T21:11:25.288Z,2.97
2018-05-08T21:13:52.869Z,2.47
2018-05-08T21:16:20.438Z,2.73
2018-05-08T21:18:48.007Z,2.57
2018-05-08T21:21:15.583Z,2.80
2018-05-08T21:23:43.133Z,2.70
2018-05-08T21:26:10.720Z,2.93
2018-05-08T21:28:43.921Z,2.97
2018-05-08T21:31:14.284Z,2.80
2018-05-08T21:33:41.897Z,3.03
2018-05-08T21:36:09.510Z,3.00
2018-05-08T21:38:37.060Z,2.83
2018-05-08T21:41:04.673Z,2.37
2018-05-08T21:43:32.268Z,2.60
2018-05-08T21:45:59.907Z,2.67
2018-05-08T21:48:27.486Z,2.80
2018-05-08T21:50:55.096Z,2.80
2018-05-08T21:53:22.646Z,2.40
2018-05-08T21:55:50.209Z,2.53
2018-05-08T21:58:17.753Z,2.73
2018-05-08T22:00:45.327Z,2.80
2018-05-08T22:03:14.122Z,2.40
2018-05-08T22:05:41.649Z,2.90
2018-05-08T22:08:09.220Z,2.90
2018-05-08T22:10:36.789Z,2.90
2018-05-08T22:13:04.358Z,2.53
2018-05-08T22:15:31.877Z,2.70
2018-05-08T22:17:59.457Z,3.10
2018-05-08T22:20:27.039Z,2.43
2018-05-08T22:22:54.664Z,2.33
2018-05-08T22:25:22.246Z,2.60
2018-05-08T22:27:49.917Z,1.93
2018-05-08T22:30:17.495Z,2.27
2018-05-08T22:32:45.093Z,2.20
2018-05-08T22:35:12.732Z,2.20
2018-05-08T22:37:40.340Z,2.43
2018-05-08T22:40:08.845Z,2.40
2018-05-08T22:42:36.427Z,2.10
2018-05-08T22:45:04.057Z,2.20
2018-05-08T22:47:31.617Z,2.00
2018-05-08T22:49:59.279Z,2.20
2018-05-08T22:52:26.839Z,2.30
2018-05-08T22:54:54.407Z,2.57
2018-05-08T22:57:22.027Z,2.03
2018-05-08T22:59:49.624Z,2.40
2018-05-08T23:02:17.179Z,2.40
2018-05-08T23:04:44.718Z,2.07
2018-05-08T23:07:12.301Z,2.10
2018-05-08T23:09:39.837Z,2.43
2018-05-08T23:12:07.392Z,2.20
2018-05-08T23:14:34.946Z,2.70
2018-05-08T23:17:02.519Z,2.40
2018-05-08T23:19:30.076Z,2.63
2018-05-08T23:21:57.622Z,2.33
2018-05-08T23:24:25.190Z,2.57
2018-05-08T23:26:52.734Z,2.47
2018-05-08T23:29:20.283Z,2.63
2018-05-08T23:31:47.879Z,3.03
2018-05-08T23:34:15.464Z,3.23
2018-05-08T23:36:43.027Z,3.17
2018-05-08T23:39:10.604Z,2.70
2018-05-08T23:41:38.172Z,2.50
2018-05-08T23:44:05.798Z,2.17
2018-05-08T23:46:33.371Z,2.10
2018-05-08T23:49:01.032Z,2.70
2018-05-08T23:51:28.683Z,2.43
2018-05-08T23:53:56.292Z,2.30
2018-05-08T23:56:23.898Z,2.33
2018-05-08T23:58:51.576Z,2.70
